Terminal Aerodrome Forecast
Issued by NWS Buffalo, NY

Home | Current Version | Previous Version | Text Only | Print | Product List | Glossary On
Versions: 1 2 3 4 5 6 7 8 9 10 11 12 13 14 15 16 17 18 19 20 21 22 23 24 25
750
FTUS41 KBUF 290523
TAFART
TAF
KART 290523Z 2906/3006 27004KT P6SM BKN060
     FM290800 28004KT 4SM BR BKN060
     FM291100 32004KT P6SM BKN045
     FM291500 34009KT P6SM FEW250
     FM292300 35005KT P6SM SKC
     FM300100 VRB03KT P6SM SKC=

USA.gov is the U.S. government's official web portal to all federal, state and local government web resources and services.